sensor_id;sensor_type;location;lat;lon;timestamp;temperature;humidity
4962;DHT22;2496;52.468;13.342;2023-04-03T00:02:07;2.20;99.90
4962;DHT22;2496;52.468;13.342;2023-04-03T00:04:34;2.20;99.90
4962;DHT22;2496;52.468;13.342;2023-04-03T00:07:01;2.20;99.90
4962;DHT22;2496;52.468;13.342;2023-04-03T00:09:28;2.20;99.90
4962;DHT22;2496;52.468;13.342;2023-04-03T00:11:55;2.20;99.90
4962;DHT22;2496;52.468;13.342;2023-04-03T00:14:24;2.10;99.90
4962;DHT22;2496;52.468;13.342;2023-04-03T00:16:51;2.10;99.90
4962;DHT22;2496;52.468;13.342;2023-04-03T00:19:18;2.20;99.90
4962;DHT22;2496;52.468;13.342;2023-04-03T00:21:45;2.10;99.90
4962;DHT22;2496;52.468;13.342;2023-04-03T00:24:12;2.20;99.90
4962;DHT22;2496;52.468;13.342;2023-04-03T00:26:39;2.10;99.90
4962;DHT22;2496;52.468;13.342;2023-04-03T00:29:06;2.10;99.90
4962;DHT22;2496;52.468;13.342;2023-04-03T00:31:34;2.20;99.90
4962;DHT22;2496;52.468;13.342;2023-04-03T00:34:01;2.10;99.90
4962;DHT22;2496;52.468;13.342;2023-04-03T00:36:29;2.10;99.90
4962;DHT22;2496;52.468;13.342;2023-04-03T00:38:59;2.10;99.90
4962;DHT22;2496;52.468;13.342;2023-04-03T00:41:26;2.10;99.90
4962;DHT22;2496;52.468;13.342;2023-04-03T00:43:53;2.10;99.90
4962;DHT22;2496;52.468;13.342;2023-04-03T00:46:20;2.00;99.90
4962;DHT22;2496;52.468;13.342;2023-04-03T00:48:49;2.10;99.90
4962;DHT22;2496;52.468;13.342;2023-04-03T00:51:20;2.00;99.90
4962;DHT22;2496;52.468;13.342;2023-04-03T00:53:53;2.10;99.90
4962;DHT22;2496;52.468;13.342;2023-04-03T00:56:23;2.10;99.90
4962;DHT22;2496;52.468;13.342;2023-04-03T00:58:54;2.10;99.90
4962;DHT22;2496;52.468;13.342;2023-04-03T01:01:26;2.00;99.90
4962;DHT22;2496;52.468;13.342;2023-04-03T01:03:55;2.00;99.90
4962;DHT22;2496;52.468;13.342;2023-04-03T01:06:26;2.00;99.90
4962;DHT22;2496;52.468;13.342;2023-04-03T01:08:55;2.00;99.90
4962;DHT22;2496;52.468;13.342;2023-04-03T01:11:22;2.00;99.90
4962;DHT22;2496;52.468;13.342;2023-04-03T01:13:50;1.90;99.90
4962;DHT22;2496;52.468;13.342;2023-04-03T01:16:17;2.00;99.90
4962;DHT22;2496;52.468;13.342;2023-04-03T01:18:45;1.90;99.90
4962;DHT22;2496;52.468;13.342;2023-04-03T01:21:47;2.00;99.90
4962;DHT22;2496;52.468;13.342;2023-04-03T01:24:31;1.90;99.90
4962;DHT22;2496;52.468;13.342;2023-04-03T01:27:01;2.00;99.90
4962;DHT22;2496;52.468;13.342;2023-04-03T01:29:29;2.00;99.90
4962;DHT22;2496;52.468;13.342;2023-04-03T01:31:59;2.00;99.90
4962;DHT22;2496;52.468;13.342;2023-04-03T01:34:27;2.00;99.90
4962;DHT22;2496;52.468;13.342;2023-04-03T01:36:54;2.00;99.90
4962;DHT22;2496;52.468;13.342;2023-04-03T01:39:22;2.00;99.90
4962;DHT22;2496;52.468;13.342;2023-04-03T01:41:49;2.00;99.90
4962;DHT22;2496;52.468;13.342;2023-04-03T01:44:16;2.00;99.90
4962;DHT22;2496;52.468;13.342;2023-04-03T01:46:44;2.00;99.90
4962;DHT22;2496;52.468;13.342;2023-04-03T01:49:13;2.00;99.90
4962;DHT22;2496;52.468;13.342;2023-04-03T01:51:40;2.00;99.90
4962;DHT22;2496;52.468;13.342;2023-04-03T01:54:07;2.00;99.90
4962;DHT22;2496;52.468;13.342;2023-04-03T01:56:34;1.90;99.90
4962;DHT22;2496;52.468;13.342;2023-04-03T01:59:01;2.00;99.90
4962;DHT22;2496;52.468;13.342;2023-04-03T02:01:28;2.00;99.90
4962;DHT22;2496;52.468;13.342;2023-04-03T02:03:55;2.00;99.90
4962;DHT22;2496;52.468;13.342;2023-04-03T02:06:23;1.90;99.90
4962;DHT22;2496;52.468;13.342;2023-04-03T02:08:50;1.90;99.90
4962;DHT22;2496;52.468;13.342;2023-04-03T02:11:18;1.90;99.90
4962;DHT22;2496;52.468;13.342;2023-04-03T02:13:45;1.90;99.90
4962;DHT22;2496;52.468;13.342;2023-04-03T02:16:12;1.80;99.90
4962;DHT22;2496;52.468;13.342;2023-04-03T02:18:39;1.80;99.90
4962;DHT22;2496;52.468;13.342;2023-04-03T02:21:06;1.70;99.90
4962;DHT22;2496;52.468;13.342;2023-04-03T02:23:35;1.70;99.90
4962;DHT22;2496;52.468;13.342;2023-04-03T02:26:04;1.70;99.90
4962;DHT22;2496;52.468;13.342;2023-04-03T02:28:32;1.70;99.90
4962;DHT22;2496;52.468;13.342;2023-04-03T02:30:59;1.70;99.90
4962;DHT22;2496;52.468;13.342;2023-04-03T02:33:26;1.70;99.90
4962;DHT22;2496;52.468;13.342;2023-04-03T02:35:54;1.60;99.90
4962;DHT22;2496;52.468;13.342;2023-04-03T02:38:21;1.70;99.90
4962;DHT22;2496;52.468;13.342;2023-04-03T02:40:49;1.60;99.90
4962;DHT22;2496;52.468;13.342;2023-04-03T02:43:17;1.60;99.90
4962;DHT22;2496;52.468;13.342;2023-04-03T02:45:44;1.60;99.90
4962;DHT22;2496;52.468;13.342;2023-04-03T02:48:11;1.60;99.90
4962;DHT22;2496;52.468;13.342;2023-04-03T02:50:40;1.60;99.90
4962;DHT22;2496;52.468;13.342;2023-04-03T02:53:08;1.60;99.90
4962;DHT22;2496;52.468;13.342;2023-04-03T02:55:35;1.60;99.90
4962;DHT22;2496;52.468;13.342;2023-04-03T02:58:03;1.60;99.90
4962;DHT22;2496;52.468;13.342;2023-04-03T03:00:30;1.60;99.90
4962;DHT22;2496;52.468;13.342;2023-04-03T03:02:57;1.60;99.90
4962;DHT22;2496;52.468;13.342;2023-04-03T03:05:24;1.60;99.90
4962;DHT22;2496;52.468;13.342;2023-04-03T03:07:52;1.60;99.90
4962;DHT22;2496;52.468;13.342;2023-04-03T03:10:19;1.60;99.90
4962;DHT22;2496;52.468;13.342;2023-04-03T03:12:46;1.50;99.90
4962;DHT22;2496;52.468;13.342;2023-04-03T03:15:15;1.50;99.90
4962;DHT22;2496;52.468;13.342;2023-04-03T03:17:43;1.50;99.90
4962;DHT22;2496;52.468;13.342;2023-04-03T03:20:11;1.50;99.90
4962;DHT22;2496;52.468;13.342;2023-04-03T03:22:39;1.40;99.90
4962;DHT22;2496;52.468;13.342;2023-04-03T03:25:07;1.40;99.90
4962;DHT22;2496;52.468;13.342;2023-04-03T03:27:34;1.40;99.90
4962;DHT22;2496;52.468;13.342;2023-04-03T03:30:01;1.40;99.90
4962;DHT22;2496;52.468;13.342;2023-04-03T03:32:29;1.40;99.90
4962;DHT22;2496;52.468;13.342;2023-04-03T03:34:56;1.40;99.90
4962;DHT22;2496;52.468;13.342;2023-04-03T03:37:23;1.40;99.90
4962;DHT22;2496;52.468;13.342;2023-04-03T03:39:50;1.30;99.90
4962;DHT22;2496;52.468;13.342;2023-04-03T03:42:17;1.30;99.90
4962;DHT22;2496;52.468;13.342;2023-04-03T03:44:44;1.30;99.90
4962;DHT22;2496;52.468;13.342;2023-04-03T03:47:11;1.30;99.90
4962;DHT22;2496;52.468;13.342;2023-04-03T03:49:39;1.30;99.90
4962;DHT22;2496;52.468;13.342;2023-04-03T03:52:06;1.30;99.90
4962;DHT22;2496;52.468;13.342;2023-04-03T03:54:36;1.30;99.90
4962;DHT22;2496;52.468;13.342;2023-04-03T03:57:03;1.30;99.90
4962;DHT22;2496;52.468;13.342;2023-04-03T03:59:30;1.30;99.90
4962;DHT22;2496;52.468;13.342;2023-04-03T04:01:57;1.30;99.90
4962;DHT22;2496;52.468;13.342;2023-04-03T04:04:24;1.30;99.90
4962;DHT22;2496;52.468;13.342;2023-04-03T04:06:52;1.20;99.90
4962;DHT22;2496;52.468;13.342;2023-04-03T04:09:19;1.20;99.90
4962;DHT22;2496;52.468;13.342;2023-04-03T04:11:47;1.20;99.90
4962;DHT22;2496;52.468;13.342;2023-04-03T04:14:14;1.20;99.90
4962;DHT22;2496;52.468;13.342;2023-04-03T04:16:41;1.10;99.90
4962;DHT22;2496;52.468;13.342;2023-04-03T04:19:08;1.10;99.90
4962;DHT22;2496;52.468;13.342;2023-04-03T04:21:35;1.10;99.90
4962;DHT22;2496;52.468;13.342;2023-04-03T04:24:04;1.10;99.90
4962;DHT22;2496;52.468;13.342;2023-04-03T04:26:31;1.10;99.90
4962;DHT22;2496;52.468;13.342;2023-04-03T04:28:58;1.10;99.90
4962;DHT22;2496;52.468;13.342;2023-04-03T04:31:25;1.10;99.90
4962;DHT22;2496;52.468;13.342;2023-04-03T04:33:52;1.10;99.90
4962;DHT22;2496;52.468;13.342;2023-04-03T04:36:20;1.00;99.90
4962;DHT22;2496;52.468;13.342;2023-04-03T04:38:47;1.10;99.90
4962;DHT22;2496;52.468;13.342;2023-04-03T04:41:15;1.10;99.90
4962;DHT22;2496;52.468;13.342;2023-04-03T04:43:43;1.10;99.90
4962;DHT22;2496;52.468;13.342;2023-04-03T04:46:11;1.10;99.90
4962;DHT22;2496;52.468;13.342;2023-04-03T04:48:38;1.00;99.90
4962;DHT22;2496;52.468;13.342;2023-04-03T04:51:05;1.10;99.90
4962;DHT22;2496;52.468;13.342;2023-04-03T04:53:33;1.00;99.90
4962;DHT22;2496;52.468;13.342;2023-04-03T04:56:00;1.10;99.90
4962;DHT22;2496;52.468;13.342;2023-04-03T04:58:28;1.00;99.90
4962;DHT22;2496;52.468;13.342;2023-04-03T05:00:58;1.00;99.90
4962;DHT22;2496;52.468;13.342;2023-04-03T05:03:26;1.10;99.90
4962;DHT22;2496;52.468;13.342;2023-04-03T05:05:53;1.00;99.90
4962;DHT22;2496;52.468;13.342;2023-04-03T05:08:21;1.00;99.90
4962;DHT22;2496;52.468;13.342;2023-04-03T05:10:48;1.10;99.90
4962;DHT22;2496;52.468;13.342;2023-04-03T05:13:15;1.10;99.90
4962;DHT22;2496;52.468;13.342;2023-04-03T05:15:44;1.10;99.90
4962;DHT22;2496;52.468;13.342;2023-04-03T05:18:10;1.20;99.90
4962;DHT22;2496;52.468;13.342;2023-04-03T05:20:37;1.20;99.90
4962;DHT22;2496;52.468;13.342;2023-04-03T05:23:05;1.20;99.90
4962;DHT22;2496;52.468;13.342;2023-04-03T05:25:32;1.20;99.90
4962;DHT22;2496;52.468;13.342;2023-04-03T05:27:59;1.20;99.90
4962;DHT22;2496;52.468;13.342;2023-04-03T05:30:26;1.20;99.90
4962;DHT22;2496;52.468;13.342;2023-04-03T05:32:58;1.30;99.90
4962;DHT22;2496;52.468;13.342;2023-04-03T05:35:25;1.20;99.90
4962;DHT22;2496;52.468;13.342;2023-04-03T05:37:52;1.20;99.90
4962;DHT22;2496;52.468;13.342;2023-04-03T05:40:19;1.20;99.90
4962;DHT22;2496;52.468;13.342;2023-04-03T05:42:47;1.30;99.90
4962;DHT22;2496;52.468;13.342;2023-04-03T05:45:14;1.30;99.90
4962;DHT22;2496;52.468;13.342;2023-04-03T05:47:41;1.30;99.90
4962;DHT22;2496;52.468;13.342;2023-04-03T05:50:10;1.30;99.90
4962;DHT22;2496;52.468;13.342;2023-04-03T05:52:39;1.30;99.90
4962;DHT22;2496;52.468;13.342;2023-04-03T05:55:07;1.30;99.90
4962;DHT22;2496;52.468;13.342;2023-04-03T05:57:34;1.40;99.90
4962;DHT22;2496;52.468;13.342;2023-04-03T06:00:03;1.40;99.90
4962;DHT22;2496;52.468;13.342;2023-04-03T06:02:30;1.40;99.90
4962;DHT22;2496;52.468;13.342;2023-04-03T06:04:58;1.40;99.90
4962;DHT22;2496;52.468;13.342;2023-04-03T06:07:26;1.50;99.90
4962;DHT22;2496;52.468;13.342;2023-04-03T06:09:55;1.60;99.90
4962;DHT22;2496;52.468;13.342;2023-04-03T06:12:22;1.60;99.90
4962;DHT22;2496;52.468;13.342;2023-04-03T06:14:49;1.60;99.90
4962;DHT22;2496;52.468;13.342;2023-04-03T06:17:17;1.70;99.90
4962;DHT22;2496;52.468;13.342;2023-04-03T06:19:44;1.70;99.90
4962;DHT22;2496;52.468;13.342;2023-04-03T06:22:11;1.70;99.90
4962;DHT22;2496;52.468;13.342;2023-04-03T06:24:40;1.70;99.90
4962;DHT22;2496;52.468;13.342;2023-04-03T06:27:07;1.80;99.90
4962;DHT22;2496;52.468;13.342;2023-04-03T06:29:36;1.90;99.90
4962;DHT22;2496;52.468;13.342;2023-04-03T06:32:04;1.90;99.90
4962;DHT22;2496;52.468;13.342;2023-04-03T06:34:31;2.00;99.90
4962;DHT22;2496;52.468;13.342;2023-04-03T06:36:58;2.10;99.90
4962;DHT22;2496;52.468;13.342;2023-04-03T06:39:25;2.30;99.90
4962;DHT22;2496;52.468;13.342;2023-04-03T06:41:54;2.80;99.90
4962;DHT22;2496;52.468;13.342;2023-04-03T06:44:21;3.20;99.90
4962;DHT22;2496;52.468;13.342;2023-04-03T06:46:48;3.60;99.90
4962;DHT22;2496;52.468;13.342;2023-04-03T06:49:15;3.70;99.90
4962;DHT22;2496;52.468;13.342;2023-04-03T06:51:42;3.80;99.90
4962;DHT22;2496;52.468;13.342;2023-04-03T06:54:09;3.90;99.90
4962;DHT22;2496;52.468;13.342;2023-04-03T06:56:37;4.20;99.90
4962;DHT22;2496;52.468;13.342;2023-04-03T06:59:05;4.30;99.90
4962;DHT22;2496;52.468;13.342;2023-04-03T07:01:32;4.40;99.90
4962;DHT22;2496;52.468;13.342;2023-04-03T07:03:59;4.50;99.90
4962;DHT22;2496;52.468;13.342;2023-04-03T07:06:27;4.60;99.80
4962;DHT22;2496;52.468;13.342;2023-04-03T07:08:54;4.60;99.90
4962;DHT22;2496;52.468;13.342;2023-04-03T07:11:21;4.50;99.90
4962;DHT22;2496;52.468;13.342;2023-04-03T07:13:48;4.40;99.90
4962;DHT22;2496;52.468;13.342;2023-04-03T07:16:16;4.50;99.90
4962;DHT22;2496;52.468;13.342;2023-04-03T07:18:44;4.60;99.80
4962;DHT22;2496;52.468;13.342;2023-04-03T07:21:11;4.60;99.10
4962;DHT22;2496;52.468;13.342;2023-04-03T07:23:38;4.50;99.00
4962;DHT22;2496;52.468;13.342;2023-04-03T07:26:05;4.50;97.90
4962;DHT22;2496;52.468;13.342;2023-04-03T07:28:33;4.20;97.70
4962;DHT22;2496;52.468;13.342;2023-04-03T07:31:03;3.90;97.10
4962;DHT22;2496;52.468;13.342;2023-04-03T07:33:33;3.90;97.60
4962;DHT22;2496;52.468;13.342;2023-04-03T07:36:01;4.10;97.70
4962;DHT22;2496;52.468;13.342;2023-04-03T07:38:28;4.10;97.60
4962;DHT22;2496;52.468;13.342;2023-04-03T07:40:55;4.20;97.70
4962;DHT22;2496;52.468;13.342;2023-04-03T07:43:22;4.20;96.80
4962;DHT22;2496;52.468;13.342;2023-04-03T07:45:50;4.00;96.60
4962;DHT22;2496;52.468;13.342;2023-04-03T07:48:18;4.00;96.30
4962;DHT22;2496;52.468;13.342;2023-04-03T07:50:47;3.90;96.30
4962;DHT22;2496;52.468;13.342;2023-04-03T07:53:15;3.90;96.60
4962;DHT22;2496;52.468;13.342;2023-04-03T07:55:42;3.80;96.60
4962;DHT22;2496;52.468;13.342;2023-04-03T07:58:10;3.80;96.90
4962;DHT22;2496;52.468;13.342;2023-04-03T08:00:38;3.70;97.10
4962;DHT22;2496;52.468;13.342;2023-04-03T08:03:07;3.70;96.90
4962;DHT22;2496;52.468;13.342;2023-04-03T08:05:36;3.70;96.60
4962;DHT22;2496;52.468;13.342;2023-04-03T08:08:06;3.70;96.40
4962;DHT22;2496;52.468;13.342;2023-04-03T08:10:33;3.70;96.40
4962;DHT22;2496;52.468;13.342;2023-04-03T08:13:01;3.50;96.50
4962;DHT22;2496;52.468;13.342;2023-04-03T08:15:29;3.50;96.40
4962;DHT22;2496;52.468;13.342;2023-04-03T08:17:57;3.50;96.50
4962;DHT22;2496;52.468;13.342;2023-04-03T08:20:24;3.60;96.70
4962;DHT22;2496;52.468;13.342;2023-04-03T08:22:51;3.80;96.40
4962;DHT22;2496;52.468;13.342;2023-04-03T08:25:20;3.80;96.20
4962;DHT22;2496;52.468;13.342;2023-04-03T08:27:47;3.80;96.30
4962;DHT22;2496;52.468;13.342;2023-04-03T08:30:14;3.70;96.40
4962;DHT22;2496;52.468;13.342;2023-04-03T08:32:42;3.70;96.30
4962;DHT22;2496;52.468;13.342;2023-04-03T08:35:10;3.60;96.40
4962;DHT22;2496;52.468;13.342;2023-04-03T08:37:38;3.60;96.50
4962;DHT22;2496;52.468;13.342;2023-04-03T08:40:07;3.60;96.70
4962;DHT22;2496;52.468;13.342;2023-04-03T08:42:42;3.60;96.60
4962;DHT22;2496;52.468;13.342;2023-04-03T08:45:15;3.50;96.70
4962;DHT22;2496;52.468;13.342;2023-04-03T08:47:48;3.50;96.80
4962;DHT22;2496;52.468;13.342;2023-04-03T08:50:20;3.50;96.40
4962;DHT22;2496;52.468;13.342;2023-04-03T08:52:52;3.60;96.10
4962;DHT22;2496;52.468;13.342;2023-04-03T08:55:24;3.60;96.10
4962;DHT22;2496;52.468;13.342;2023-04-03T08:57:58;3.60;96.20
4962;DHT22;2496;52.468;13.342;2023-04-03T09:00:32;3.60;96.20
4962;DHT22;2496;52.468;13.342;2023-04-03T09:03:01;3.60;95.80
4962;DHT22;2496;52.468;13.342;2023-04-03T09:05:35;3.60;95.70
4962;DHT22;2496;52.468;13.342;2023-04-03T09:08:12;3.70;95.90
4962;DHT22;2496;52.468;13.342;2023-04-03T09:10:42;3.70;96.30
4962;DHT22;2496;52.468;13.342;2023-04-03T09:13:13;3.70;96.00
4962;DHT22;2496;52.468;13.342;2023-04-03T09:15:44;3.70;96.20
4962;DHT22;2496;52.468;13.342;2023-04-03T09:18:15;3.90;96.20
4962;DHT22;2496;52.468;13.342;2023-04-03T09:20:46;4.30;95.50
4962;DHT22;2496;52.468;13.342;2023-04-03T09:23:22;4.80;94.40
4962;DHT22;2496;52.468;13.342;2023-04-03T09:25:54;5.10;93.20
4962;DHT22;2496;52.468;13.342;2023-04-03T09:28:24;5.50;92.40
4962;DHT22;2496;52.468;13.342;2023-04-03T09:30:51;5.90;92.40
4962;DHT22;2496;52.468;13.342;2023-04-03T09:33:19;6.10;91.60
4962;DHT22;2496;52.468;13.342;2023-04-03T09:35:48;6.20;91.10
4962;DHT22;2496;52.468;13.342;2023-04-03T09:38:20;6.20;90.60
4962;DHT22;2496;52.468;13.342;2023-04-03T09:40:49;5.90;89.60
4962;DHT22;2496;52.468;13.342;2023-04-03T09:43:27;5.40;89.50
4962;DHT22;2496;52.468;13.342;2023-04-03T09:45:55;5.30;90.10
4962;DHT22;2496;52.468;13.342;2023-04-03T09:48:24;5.10;90.20
4962;DHT22;2496;52.468;13.342;2023-04-03T09:50:57;5.10;90.40
4962;DHT22;2496;52.468;13.342;2023-04-03T09:53:28;5.20;90.60
4962;DHT22;2496;52.468;13.342;2023-04-03T09:55:56;5.30;90.50
4962;DHT22;2496;52.468;13.342;2023-04-03T09:58:27;5.30;89.70
4962;DHT22;2496;52.468;13.342;2023-04-03T10:00:56;5.20;90.00
4962;DHT22;2496;52.468;13.342;2023-04-03T10:03:27;5.10;90.40
4962;DHT22;2496;52.468;13.342;2023-04-03T10:05:54;5.00;90.60
4962;DHT22;2496;52.468;13.342;2023-04-03T10:08:26;5.00;90.90
4962;DHT22;2496;52.468;13.342;2023-04-03T10:11:21;4.90;91.00
4962;DHT22;2496;52.468;13.342;2023-04-03T10:13:54;4.80;91.20
4962;DHT22;2496;52.468;13.342;2023-04-03T10:16:26;4.80;91.40
4962;DHT22;2496;52.468;13.342;2023-04-03T10:19:06;4.80;91.70
4962;DHT22;2496;52.468;13.342;2023-04-03T10:21:42;4.70;91.80
4962;DHT22;2496;52.468;13.342;2023-04-03T10:24:14;4.70;91.90
4962;DHT22;2496;52.468;13.342;2023-04-03T10:26:52;4.60;92.10
4962;DHT22;2496;52.468;13.342;2023-04-03T10:29:31;4.70;91.90
4962;DHT22;2496;52.468;13.342;2023-04-03T10:32:11;4.60;92.00
4962;DHT22;2496;52.468;13.342;2023-04-03T10:34:45;4.60;92.20
4962;DHT22;2496;52.468;13.342;2023-04-03T10:37:18;4.80;91.50
4962;DHT22;2496;52.468;13.342;2023-04-03T10:39:51;4.80;91.50
4962;DHT22;2496;52.468;13.342;2023-04-03T10:42:28;4.80;91.30
4962;DHT22;2496;52.468;13.342;2023-04-03T10:45:15;4.90;90.90
4962;DHT22;2496;52.468;13.342;2023-04-03T10:47:53;4.90;90.40
4962;DHT22;2496;52.468;13.342;2023-04-03T10:50:31;5.00;90.70
4962;DHT22;2496;52.468;13.342;2023-04-03T10:53:08;4.90;90.50
4962;DHT22;2496;52.468;13.342;2023-04-03T10:55:42;4.90;90.50
4962;DHT22;2496;52.468;13.342;2023-04-03T10:58:20;5.00;90.00
4962;DHT22;2496;52.468;13.342;2023-04-03T11:00:54;5.10;89.80
4962;DHT22;2496;52.468;13.342;2023-04-03T11:03:29;5.20;88.60
4962;DHT22;2496;52.468;13.342;2023-04-03T11:06:00;5.20;89.00
4962;DHT22;2496;52.468;13.342;2023-04-03T11:08:34;5.30;89.50
4962;DHT22;2496;52.468;13.342;2023-04-03T11:11:06;5.30;89.80
4962;DHT22;2496;52.468;13.342;2023-04-03T11:13:37;5.10;90.10
4962;DHT22;2496;52.468;13.342;2023-04-03T11:16:06;5.10;90.10
4962;DHT22;2496;52.468;13.342;2023-04-03T11:18:37;5.10;90.20
4962;DHT22;2496;52.468;13.342;2023-04-03T11:21:11;5.10;90.20
4962;DHT22;2496;52.468;13.342;2023-04-03T11:23:40;5.20;90.10
4962;DHT22;2496;52.468;13.342;2023-04-03T11:26:10;5.20;90.40
4962;DHT22;2496;52.468;13.342;2023-04-03T11:28:38;5.20;90.40
4962;DHT22;2496;52.468;13.342;2023-04-03T11:31:19;5.30;90.30
4962;DHT22;2496;52.468;13.342;2023-04-03T11:33:55;5.40;90.20
4962;DHT22;2496;52.468;13.342;2023-04-03T11:36:27;5.20;90.90
4962;DHT22;2496;52.468;13.342;2023-04-03T11:38:59;5.20;90.90
4962;DHT22;2496;52.468;13.342;2023-04-03T11:41:29;5.30;90.90
4962;DHT22;2496;52.468;13.342;2023-04-03T11:43:59;5.40;90.90
4962;DHT22;2496;52.468;13.342;2023-04-03T11:46:50;5.30;91.10
4962;DHT22;2496;52.468;13.342;2023-04-03T11:49:55;5.20;91.10
4962;DHT22;2496;52.468;13.342;2023-04-03T11:53:01;5.20;91.40
4962;DHT22;2496;52.468;13.342;2023-04-03T11:55:52;5.30;90.90
4962;DHT22;2496;52.468;13.342;2023-04-03T11:58:21;5.40;91.00
4962;DHT22;2496;52.468;13.342;2023-04-03T12:00:59;5.30;90.80
4962;DHT22;2496;52.468;13.342;2023-04-03T12:06:53;5.50;91.60
4962;DHT22;2496;52.468;13.342;2023-04-03T12:12:35;5.40;91.10
4962;DHT22;2496;52.468;13.342;2023-04-03T12:15:21;5.40;91.10
4962;DHT22;2496;52.468;13.342;2023-04-03T12:17:49;5.30;91.40
4962;DHT22;2496;52.468;13.342;2023-04-03T12:23:35;5.20;91.60
4962;DHT22;2496;52.468;13.342;2023-04-03T12:26:21;5.10;91.70
4962;DHT22;2496;52.468;13.342;2023-04-03T12:28:50;5.20;91.60
4962;DHT22;2496;52.468;13.342;2023-04-03T12:31:19;5.30;91.00
4962;DHT22;2496;52.468;13.342;2023-04-03T12:34:10;5.40;91.20
4962;DHT22;2496;52.468;13.342;2023-04-03T12:36:48;5.40;91.60
4962;DHT22;2496;52.468;13.342;2023-04-03T12:39:37;5.40;92.30
4962;DHT22;2496;52.468;13.342;2023-04-03T12:42:18;5.40;92.10
4962;DHT22;2496;52.468;13.342;2023-04-03T12:44:53;5.40;91.80
4962;DHT22;2496;52.468;13.342;2023-04-03T12:47:26;5.30;91.70
4962;DHT22;2496;52.468;13.342;2023-04-03T12:49:54;5.20;91.90
4962;DHT22;2496;52.468;13.342;2023-04-03T12:52:32;5.20;92.00
4962;DHT22;2496;52.468;13.342;2023-04-03T12:55:01;5.20;92.10
4962;DHT22;2496;52.468;13.342;2023-04-03T12:57:30;5.20;91.70
4962;DHT22;2496;52.468;13.342;2023-04-03T12:59:58;5.20;91.40
4962;DHT22;2496;52.468;13.342;2023-04-03T13:02:27;5.30;91.30
4962;DHT22;2496;52.468;13.342;2023-04-03T13:04:56;5.30;90.60
4962;DHT22;2496;52.468;13.342;2023-04-03T13:07:28;5.40;90.00
4962;DHT22;2496;52.468;13.342;2023-04-03T13:10:14;5.50;90.10
4962;DHT22;2496;52.468;13.342;2023-04-03T13:12:48;5.50;90.50
4962;DHT22;2496;52.468;13.342;2023-04-03T13:15:20;5.50;90.30
4962;DHT22;2496;52.468;13.342;2023-04-03T13:17:48;5.50;90.40
4962;DHT22;2496;52.468;13.342;2023-04-03T13:20:21;5.50;90.70
4962;DHT22;2496;52.468;13.342;2023-04-03T13:22:53;5.50;91.00
4962;DHT22;2496;52.468;13.342;2023-04-03T13:25:25;5.50;91.20
4962;DHT22;2496;52.468;13.342;2023-04-03T13:27:53;5.60;90.70
4962;DHT22;2496;52.468;13.342;2023-04-03T13:30:24;5.60;90.60
4962;DHT22;2496;52.468;13.342;2023-04-03T13:32:52;5.50;90.60
4962;DHT22;2496;52.468;13.342;2023-04-03T13:35:28;5.30;91.00
4962;DHT22;2496;52.468;13.342;2023-04-03T13:37:57;5.20;91.10
4962;DHT22;2496;52.468;13.342;2023-04-03T13:40:26;5.20;91.50
4962;DHT22;2496;52.468;13.342;2023-04-03T13:43:03;5.30;91.70
4962;DHT22;2496;52.468;13.342;2023-04-03T13:45:34;5.30;91.80
4962;DHT22;2496;52.468;13.342;2023-04-03T13:48:17;5.30;92.20
4962;DHT22;2496;52.468;13.342;2023-04-03T13:50:53;5.30;92.10
4962;DHT22;2496;52.468;13.342;2023-04-03T13:53:21;5.40;91.90
4962;DHT22;2496;52.468;13.342;2023-04-03T13:55:56;5.50;91.30
4962;DHT22;2496;52.468;13.342;2023-04-03T13:58:25;5.40;91.50
4962;DHT22;2496;52.468;13.342;2023-04-03T14:00:54;5.40;91.60
4962;DHT22;2496;52.468;13.342;2023-04-03T14:03:24;5.40;91.90
4962;DHT22;2496;52.468;13.342;2023-04-03T14:05:52;5.40;91.70
4962;DHT22;2496;52.468;13.342;2023-04-03T14:08:19;5.40;91.50
4962;DHT22;2496;52.468;13.342;2023-04-03T14:10:47;5.40;91.70
4962;DHT22;2496;52.468;13.342;2023-04-03T14:13:18;5.40;91.60
4962;DHT22;2496;52.468;13.342;2023-04-03T14:15:46;5.30;91.80
4962;DHT22;2496;52.468;13.342;2023-04-03T14:18:15;5.30;92.40
4962;DHT22;2496;52.468;13.342;2023-04-03T14:20:43;5.40;91.70
4962;DHT22;2496;52.468;13.342;2023-04-03T14:23:11;5.40;91.60
4962;DHT22;2496;52.468;13.342;2023-04-03T14:25:38;5.50;91.70
4962;DHT22;2496;52.468;13.342;2023-04-03T14:28:17;5.50;91.60
4962;DHT22;2496;52.468;13.342;2023-04-03T14:30:46;5.50;91.50
4962;DHT22;2496;52.468;13.342;2023-04-03T14:33:15;5.40;90.70
4962;DHT22;2496;52.468;13.342;2023-04-03T14:35:42;5.40;91.00
4962;DHT22;2496;52.468;13.342;2023-04-03T14:38:20;5.30;91.00
4962;DHT22;2496;52.468;13.342;2023-04-03T14:40:48;5.30;91.00
4962;DHT22;2496;52.468;13.342;2023-04-03T14:43:16;5.30;91.10
4962;DHT22;2496;52.468;13.342;2023-04-03T14:45:44;5.30;91.00
4962;DHT22;2496;52.468;13.342;2023-04-03T14:48:17;5.40;90.60
4962;DHT22;2496;52.468;13.342;2023-04-03T14:50:45;5.50;91.90
4962;DHT22;2496;52.468;13.342;2023-04-03T14:53:13;5.60;90.70
4962;DHT22;2496;52.468;13.342;2023-04-03T14:55:41;5.60;90.60
4962;DHT22;2496;52.468;13.342;2023-04-03T14:58:12;5.60;90.70
4962;DHT22;2496;52.468;13.342;2023-04-03T15:00:41;5.50;90.90
4962;DHT22;2496;52.468;13.342;2023-04-03T15:03:13;5.50;91.40
4962;DHT22;2496;52.468;13.342;2023-04-03T15:05:41;5.50;91.50
4962;DHT22;2496;52.468;13.342;2023-04-03T15:08:19;5.40;91.80
4962;DHT22;2496;52.468;13.342;2023-04-03T15:10:47;5.30;92.10
4962;DHT22;2496;52.468;13.342;2023-04-03T15:13:15;5.30;92.60
4962;DHT22;2496;52.468;13.342;2023-04-03T15:15:44;5.30;92.70
4962;DHT22;2496;52.468;13.342;2023-04-03T15:18:15;5.30;92.90
4962;DHT22;2496;52.468;13.342;2023-04-03T15:20:43;5.30;93.10
4962;DHT22;2496;52.468;13.342;2023-04-03T15:23:12;5.30;93.40
4962;DHT22;2496;52.468;13.342;2023-04-03T15:25:41;5.20;93.60
4962;DHT22;2496;52.468;13.342;2023-04-03T15:28:09;5.20;93.80
4962;DHT22;2496;52.468;13.342;2023-04-03T15:30:43;5.10;94.00
4962;DHT22;2496;52.468;13.342;2023-04-03T15:33:10;5.20;94.10
4962;DHT22;2496;52.468;13.342;2023-04-03T15:35:37;5.10;94.30
4962;DHT22;2496;52.468;13.342;2023-04-03T15:38:04;5.10;94.40
4962;DHT22;2496;52.468;13.342;2023-04-03T15:40:31;5.10;94.60
4962;DHT22;2496;52.468;13.342;2023-04-03T15:42:58;5.10;94.70
4962;DHT22;2496;52.468;13.342;2023-04-03T15:45:26;5.20;94.50
4962;DHT22;2496;52.468;13.342;2023-04-03T15:47:56;5.10;94.60
4962;DHT22;2496;52.468;13.342;2023-04-03T15:50:23;5.10;94.70
4962;DHT22;2496;52.468;13.342;2023-04-03T15:52:51;5.10;94.40
4962;DHT22;2496;52.468;13.342;2023-04-03T15:55:20;5.00;94.40
4962;DHT22;2496;52.468;13.342;2023-04-03T15:57:47;4.90;94.40
4962;DHT22;2496;52.468;13.342;2023-04-03T16:00:14;4.90;94.00
4962;DHT22;2496;52.468;13.342;2023-04-03T16:02:42;4.90;94.40
4962;DHT22;2496;52.468;13.342;2023-04-03T16:05:11;4.90;94.60
4962;DHT22;2496;52.468;13.342;2023-04-03T16:07:39;4.90;94.60
4962;DHT22;2496;52.468;13.342;2023-04-03T16:10:08;5.00;94.40
4962;DHT22;2496;52.468;13.342;2023-04-03T16:12:35;5.00;94.40
4962;DHT22;2496;52.468;13.342;2023-04-03T16:15:04;4.90;94.80
4962;DHT22;2496;52.468;13.342;2023-04-03T16:17:32;5.00;94.20
4962;DHT22;2496;52.468;13.342;2023-04-03T16:20:00;4.90;93.90
4962;DHT22;2496;52.468;13.342;2023-04-03T16:22:30;4.90;94.00
4962;DHT22;2496;52.468;13.342;2023-04-03T16:24:57;4.90;94.20
4962;DHT22;2496;52.468;13.342;2023-04-03T16:27:24;4.80;94.40
4962;DHT22;2496;52.468;13.342;2023-04-03T16:29:53;4.80;95.00